createdAt,value
2018-08-06T00:04:03.420Z,26.40
2018-08-06T00:14:08.423Z,26.50
2018-08-06T00:24:13.389Z,26.50
2018-08-06T00:34:18.284Z,26.50
2018-08-06T00:44:23.282Z,26.50
2018-08-06T01:04:32.621Z,26.50
2018-08-06T01:14:37.322Z,26.50
2018-08-06T01:24:41.997Z,26.50
2018-08-06T01:34:46.644Z,26.50
2018-08-06T01:44:51.432Z,26.50
2018-08-06T01:54:56.415Z,26.50
2018-08-06T02:05:01.167Z,26.50
2018-08-06T02:15:07.872Z,26.50
2018-08-06T02:25:13.006Z,26.50
2018-08-06T02:35:17.882Z,26.40
2018-08-06T02:45:22.607Z,26.50
2018-08-06T02:55:27.576Z,26.50
2018-08-06T03:05:32.443Z,26.40
2018-08-06T03:15:37.207Z,26.40
2018-08-06T03:25:42.005Z,26.40
2018-08-06T03:35:46.871Z,26.40
2018-08-06T03:45:51.835Z,26.40
2018-08-06T03:55:56.747Z,26.40
2018-08-06T04:06:01.646Z,26.40
2018-08-06T04:16:06.668Z,26.30
2018-08-06T04:26:11.206Z,26.30
2018-08-06T04:36:15.864Z,26.30
2018-08-06T04:46:21.225Z,26.30
2018-08-06T04:56:26.011Z,26.30
2018-08-06T05:06:30.723Z,26.10
2018-08-06T05:16:35.593Z,25.90
2018-08-06T05:26:40.351Z,25.80
2018-08-06T05:36:44.991Z,25.80
2018-08-06T05:46:49.848Z,25.70
2018-08-06T06:06:59.099Z,25.70
2018-08-06T06:17:03.867Z,25.70
2018-08-06T06:27:08.540Z,25.70
2018-08-06T06:37:13.420Z,25.70
2018-08-06T06:47:18.863Z,25.60
2018-08-06T06:57:23.494Z,25.50
2018-08-06T07:07:28.232Z,25.60
2018-08-06T07:17:33.417Z,25.60
2018-08-06T07:27:38.459Z,25.70
2018-08-06T07:37:43.246Z,25.60
2018-08-06T07:47:49.139Z,25.60
2018-08-06T07:57:53.994Z,25.60
2018-08-06T08:07:58.858Z,25.70
2018-08-06T08:18:03.594Z,25.70
2018-08-06T08:28:08.488Z,25.80
2018-08-06T08:38:13.392Z,25.80
2018-08-06T08:48:18.165Z,25.80
2018-08-06T08:58:23.645Z,25.80
2018-08-06T09:18:32.749Z,25.90
2018-08-06T09:28:37.546Z,26.00
2018-08-06T09:38:42.431Z,26.10
2018-08-06T09:48:47.279Z,26.00
2018-08-06T09:58:53.018Z,26.00
2018-08-06T10:19:04.376Z,26.10
2018-08-06T10:29:09.834Z,26.10
2018-08-06T10:39:14.584Z,26.00
2018-08-06T10:49:19.490Z,26.10
2018-08-06T10:59:24.415Z,26.10
2018-08-06T11:09:29.566Z,26.30
2018-08-06T11:19:34.323Z,26.40
2018-08-06T11:29:39.419Z,26.40
2018-08-06T11:39:44.165Z,26.50
2018-08-06T11:49:48.950Z,26.40
2018-08-06T11:59:53.876Z,26.50
2018-08-06T12:09:58.734Z,26.50
2018-08-06T12:20:05.000Z,26.50
2018-08-06T12:30:15.619Z,26.50
2018-08-06T12:40:22.621Z,26.50
2018-08-06T12:50:27.436Z,26.50
2018-08-06T13:00:32.921Z,26.50
2018-08-06T13:10:37.774Z,26.80
2018-08-06T13:20:42.585Z,26.90
2018-08-06T13:30:47.254Z,27.00
2018-08-06T13:40:51.921Z,27.10
2018-08-06T13:50:56.802Z,27.10
2018-08-06T14:11:07.255Z,27.10
2018-08-06T14:21:12.170Z,27.20
2018-08-06T14:31:16.955Z,27.30
2018-08-06T14:41:21.720Z,27.30
2018-08-06T15:01:31.715Z,27.30
2018-08-06T15:11:36.587Z,27.30
2018-08-06T15:21:41.307Z,27.40
2018-08-06T15:31:46.343Z,27.40
2018-08-06T15:41:51.273Z,27.40
2018-08-06T15:51:56.209Z,27.40
2018-08-06T16:02:00.989Z,27.40
2018-08-06T16:12:05.851Z,27.40
2018-08-06T16:22:10.815Z,27.50
2018-08-06T16:32:15.801Z,27.60
2018-08-06T16:42:21.114Z,27.70
2018-08-06T16:52:26.242Z,27.60
2018-08-06T17:02:31.095Z,27.70
2018-08-06T17:12:41.362Z,27.80
2018-08-06T17:22:47.411Z,27.80
2018-08-06T17:32:52.201Z,27.80
2018-08-06T17:42:57.250Z,28.00
2018-08-06T17:53:02.110Z,27.90
2018-08-06T18:03:07.113Z,27.90
2018-08-06T18:13:11.893Z,27.90
2018-08-06T18:23:16.781Z,28.00
2018-08-06T18:33:22.656Z,27.90
2018-08-06T18:43:27.379Z,27.80
2018-08-06T18:53:33.013Z,27.70
2018-08-06T19:03:38.016Z,27.80
2018-08-06T19:13:47.832Z,27.60
2018-08-06T19:23:56.733Z,27.50
2018-08-06T19:34:01.598Z,27.50
2018-08-06T19:44:06.816Z,27.40
2018-08-06T19:54:11.690Z,27.40
2018-08-06T20:04:16.489Z,27.30
2018-08-06T20:14:21.261Z,27.20
2018-08-06T20:24:26.278Z,27.20
2018-08-06T20:34:31.542Z,27.20
2018-08-06T20:44:38.859Z,27.20
2018-08-06T20:54:43.689Z,27.10
2018-08-06T21:04:49.217Z,27.10
2018-08-06T21:14:53.969Z,27.10
2018-08-06T21:24:58.916Z,27.00
2018-08-06T22:05:19.460Z,26.90
